createdAt,value
2018-11-05T00:00:35.718Z,97684.95
2018-11-05T00:03:05.985Z,97678.56
2018-11-05T00:05:35.454Z,97676.84
2018-11-05T00:08:05.110Z,97667.03
2018-11-05T00:10:34.505Z,97665.70
2018-11-05T00:13:03.918Z,97665.27
2018-11-05T00:15:33.318Z,97667.84
2018-11-05T00:18:02.694Z,97669.99
2018-11-05T00:20:32.114Z,97655.91
2018-11-05T00:23:01.491Z,97654.23
2018-11-05T00:25:30.855Z,97653.36
2018-11-05T00:28:00.237Z,97644.84
2018-11-05T00:30:29.602Z,97639.72
2018-11-05T00:32:58.984Z,97635.44
2018-11-05T00:35:28.362Z,97637.59
2018-11-05T00:37:57.734Z,97641.45
2018-11-05T00:40:27.134Z,97638.46
2018-11-05T00:42:56.538Z,97637.73
2018-11-05T00:45:25.999Z,97644.15
2018-11-05T00:47:55.342Z,97649.27
2018-11-05T00:50:24.710Z,97644.95
2018-11-05T00:52:54.119Z,97644.08
2018-11-05T00:55:23.526Z,97641.95
2018-11-05T00:57:52.928Z,97631.75
2018-11-05T01:00:22.314Z,97627.47
2018-11-05T01:02:51.699Z,97625.77
2018-11-05T01:05:21.742Z,97621.56
2018-11-05T01:07:51.119Z,97620.72
2018-11-05T01:10:21.746Z,97616.85
2018-11-05T01:12:51.135Z,97609.66
2018-11-05T01:15:21.754Z,97601.58
2018-11-05T01:17:51.176Z,97611.80
2018-11-05T01:20:20.646Z,97615.63
2018-11-05T01:22:50.018Z,97605.80
2018-11-05T01:25:19.423Z,97607.92
2018-11-05T01:27:48.786Z,97607.47
2018-11-05T01:30:18.158Z,97611.77
2018-11-05T01:32:47.553Z,97610.14
2018-11-05T01:35:16.946Z,97605.41
2018-11-05T01:37:47.182Z,97597.28
2018-11-05T01:40:16.555Z,97584.48
2018-11-05T01:42:45.966Z,97586.64
2018-11-05T01:45:15.732Z,97582.34
2018-11-05T01:47:45.518Z,97579.40
2018-11-05T01:50:16.446Z,97587.53
2018-11-05T01:52:45.939Z,97590.22
2018-11-05T01:55:15.302Z,97587.49
2018-11-05T01:57:44.666Z,97578.03
2018-11-05T02:00:16.014Z,97578.38
2018-11-05T02:02:46.228Z,97567.70
2018-11-05T02:05:15.614Z,97565.56
2018-11-05T02:07:45.850Z,97571.11
2018-11-05T02:10:17.357Z,97561.28
2018-11-05T02:12:46.662Z,97551.94
2018-11-05T02:15:16.079Z,97546.77
2018-11-05T02:17:46.452Z,97541.63
2018-11-05T02:20:16.858Z,97542.45
2018-11-05T02:22:46.278Z,97544.65
2018-11-05T02:25:15.710Z,97544.19
2018-11-05T02:27:45.118Z,97540.36
2018-11-05T02:30:16.860Z,97534.81
2018-11-05T02:32:46.633Z,97536.55
2018-11-05T02:35:16.879Z,97537.78
2018-11-05T02:37:46.975Z,97545.88
2018-11-05T02:40:17.631Z,97556.95
2018-11-05T02:42:47.611Z,97548.85
2018-11-05T02:45:17.971Z,97535.63
2018-11-05T02:47:47.398Z,97531.89
2018-11-05T02:50:17.212Z,97533.61
2018-11-05T02:52:47.300Z,97530.70
2018-11-05T02:55:16.933Z,97528.30
2018-11-05T02:57:46.639Z,97496.22
2018-11-05T03:00:18.585Z,97515.76
2018-11-05T03:02:48.419Z,97525.09
2018-11-05T03:05:19.216Z,97518.19
2018-11-05T03:07:49.804Z,97517.73
2018-11-05T03:10:19.492Z,97516.81
2018-11-05T03:12:49.497Z,97519.78
2018-11-05T03:15:19.726Z,97528.73
2018-11-05T03:17:49.433Z,97547.01
2018-11-05T03:20:19.140Z,97553.77
2018-11-05T03:22:48.799Z,97562.22
2018-11-05T03:25:18.538Z,97561.77
2018-11-05T03:27:48.210Z,97556.22
2018-11-05T03:30:19.143Z,97555.36
2018-11-05T03:32:48.840Z,97561.70
2018-11-05T03:35:18.505Z,97544.65
2018-11-05T03:37:48.234Z,97533.59
2018-11-05T03:40:17.998Z,97525.27
2018-11-05T03:42:47.833Z,97519.91
2018-11-05T03:45:17.857Z,97514.03
2018-11-05T03:47:47.522Z,97513.15
2018-11-05T03:50:18.864Z,97505.41
2018-11-05T03:52:48.712Z,97393.46
2018-11-05T03:55:18.644Z,97494.28
2018-11-05T03:57:48.065Z,97493.47
2018-11-05T04:00:18.472Z,97499.33
2018-11-05T04:02:48.071Z,97496.31
2018-11-05T04:05:17.457Z,97503.03
2018-11-05T04:07:46.858Z,97497.03
2018-11-05T04:10:16.381Z,97492.71
2018-11-05T04:12:45.806Z,97497.81
2018-11-05T04:15:15.206Z,97483.72
2018-11-05T04:17:44.585Z,97480.75
2018-11-05T04:20:14.938Z,97479.30
2018-11-05T04:22:45.035Z,97474.67
2018-11-05T04:25:14.439Z,97475.03
2018-11-05T04:27:43.932Z,97473.66
2018-11-05T04:30:14.484Z,97476.63
2018-11-05T04:32:44.107Z,97477.84
2018-11-05T04:35:13.882Z,97483.45
2018-11-05T04:37:43.310Z,97473.61
2018-11-05T04:40:12.774Z,97479.16
2018-11-05T04:42:42.146Z,97484.64
2018-11-05T04:45:12.856Z,97481.59
2018-11-05T04:47:42.842Z,97480.31
2018-11-05T04:50:13.254Z,97475.28
2018-11-05T04:52:43.543Z,97468.02
2018-11-05T04:55:12.922Z,97469.68
2018-11-05T04:57:42.290Z,97461.95
2018-11-05T05:00:18.143Z,97444.93
2018-11-05T05:02:47.514Z,97442.38
2018-11-05T05:05:17.417Z,97445.77
2018-11-05T05:07:46.903Z,97451.67
2018-11-05T05:10:16.289Z,97447.41
2018-11-05T05:12:45.678Z,97437.15
2018-11-05T05:15:15.082Z,97433.66
2018-11-05T05:17:44.458Z,97434.47
2018-11-05T05:20:15.179Z,97440.87
2018-11-05T05:22:44.779Z,97447.67
2018-11-05T05:25:14.282Z,97436.59
2018-11-05T05:27:43.670Z,97432.70
2018-11-05T05:30:18.511Z,97442.49
2018-11-05T05:32:48.789Z,97442.46
2018-11-05T05:35:18.991Z,97436.94
2018-11-05T05:37:48.394Z,97438.22
2018-11-05T05:40:17.778Z,97429.27
2018-11-05T05:42:47.189Z,97434.32
2018-11-05T05:45:16.580Z,97450.98
2018-11-05T05:47:45.964Z,97474.41
2018-11-05T05:50:16.860Z,97461.01
2018-11-05T05:52:47.635Z,97460.48
2018-11-05T05:55:17.113Z,97443.80
2018-11-05T05:57:46.598Z,97450.60
2018-11-05T06:00:17.268Z,97462.95
2018-11-05T06:02:46.705Z,97474.03
2018-11-05T06:05:16.479Z,97365.60
2018-11-05T06:07:45.874Z,97462.66
2018-11-05T06:10:16.011Z,97474.06
2018-11-05T06:12:45.474Z,97465.08
2018-11-05T06:15:16.088Z,97443.02
2018-11-05T06:17:45.494Z,97458.80
2018-11-05T06:20:17.125Z,97460.55
2018-11-05T06:22:47.405Z,97463.65
2018-11-05T06:25:17.352Z,97464.57
2018-11-05T06:27:46.888Z,97467.45
2018-11-05T06:30:19.348Z,97478.09
2018-11-05T06:32:49.483Z,97475.86
2018-11-05T06:35:19.523Z,97472.02
2018-11-05T06:37:48.851Z,97466.83
2018-11-05T06:40:20.206Z,97476.56
2018-11-05T06:42:49.822Z,97474.78
2018-11-05T06:45:20.590Z,97470.55
2018-11-05T06:47:50.699Z,97473.95
2018-11-05T06:50:23.076Z,97463.71
2018-11-05T06:52:52.884Z,97469.79
2018-11-05T06:55:23.397Z,97474.06
2018-11-05T06:57:53.245Z,97486.01
2018-11-05T07:00:24.650Z,97482.98
2018-11-05T07:02:54.138Z,97480.02
2018-11-05T07:05:23.523Z,97477.81
2018-11-05T07:07:52.909Z,97483.30
2018-11-05T07:10:23.011Z,97483.71
2018-11-05T07:12:52.938Z,97475.69
2018-11-05T07:15:23.282Z,97464.98
2018-11-05T07:17:52.674Z,97471.36
2018-11-05T07:20:23.414Z,97464.46
2018-11-05T07:22:53.073Z,97460.92
2018-11-05T07:25:23.507Z,97470.20
2018-11-05T07:27:53.331Z,97469.67
2018-11-05T07:30:24.406Z,97461.19
2018-11-05T07:32:55.093Z,97466.20
2018-11-05T07:35:24.494Z,97467.80
2018-11-05T07:37:53.882Z,97468.14
2018-11-05T07:40:23.291Z,97473.23
2018-11-05T07:42:52.678Z,97470.61
2018-11-05T07:45:24.334Z,97463.73
2018-11-05T07:47:53.754Z,97468.38
2018-11-05T07:50:23.367Z,97463.86
2018-11-05T07:52:53.282Z,97467.14
2018-11-05T07:55:23.234Z,97460.27
2018-11-05T07:57:53.010Z,97456.45
2018-11-05T08:00:28.610Z,97448.08
2018-11-05T08:02:58.512Z,97448.20
2018-11-05T08:05:27.752Z,97457.80
2018-11-05T08:07:57.118Z,97445.23
2018-11-05T08:10:26.512Z,97443.89
2018-11-05T08:12:55.874Z,97442.57
2018-11-05T08:15:26.190Z,97445.97
2018-11-05T08:17:55.614Z,97448.89
2018-11-05T08:20:24.994Z,97451.38
2018-11-05T08:22:54.390Z,97450.79
2018-11-05T08:25:23.762Z,97444.42
2018-11-05T08:27:53.146Z,97446.78
2018-11-05T08:30:25.282Z,97454.72
2018-11-05T08:32:55.175Z,97458.44
2018-11-05T08:35:24.569Z,97461.27
2018-11-05T08:37:54.402Z,97464.06
2018-11-05T08:40:26.271Z,97453.41
2018-11-05T08:42:56.079Z,97442.58
2018-11-05T08:45:26.814Z,97441.24
2018-11-05T08:47:56.176Z,97434.31
2018-11-05T08:50:25.871Z,97432.41
2018-11-05T08:52:55.193Z,97430.08
2018-11-05T08:55:25.928Z,97424.68
2018-11-05T08:57:55.303Z,97424.58
2018-11-05T09:00:29.911Z,97418.80
2018-11-05T09:02:59.307Z,97414.73
2018-11-05T09:05:28.830Z,97407.75
2018-11-05T09:07:58.299Z,97414.18
2018-11-05T09:10:27.873Z,97419.52
2018-11-05T09:12:57.254Z,97428.30
2018-11-05T09:15:26.653Z,97429.08
2018-11-05T09:17:56.026Z,97426.81
2018-11-05T09:20:25.404Z,97424.84
2018-11-05T09:22:54.799Z,97428.14
2018-11-05T09:25:24.166Z,97435.29
2018-11-05T09:27:53.604Z,97436.67
2018-11-05T09:30:24.366Z,97434.11
2018-11-05T09:32:53.809Z,97432.98
2018-11-05T09:35:23.291Z,97434.65
2018-11-05T09:37:52.714Z,97437.57
2018-11-05T09:40:24.418Z,97439.05
2018-11-05T09:42:54.408Z,97440.92
2018-11-05T09:45:27.153Z,97430.88
2018-11-05T09:47:56.586Z,97435.79
2018-11-05T09:50:25.982Z,97432.94
2018-11-05T09:52:55.342Z,97432.05
2018-11-05T09:55:24.880Z,97434.27
2018-11-05T09:57:54.238Z,97432.09
2018-11-05T10:00:25.786Z,97431.59
2018-11-05T10:03:00.668Z,97426.46
2018-11-05T10:05:29.908Z,97435.45
2018-11-05T10:07:59.286Z,97423.03
2018-11-05T10:10:28.781Z,97432.96
2018-11-05T10:12:58.046Z,97413.69
2018-11-05T10:15:27.436Z,97409.90
2018-11-05T10:17:56.808Z,97411.05
2018-11-05T10:20:26.554Z,97407.13
2018-11-05T10:22:55.918Z,97393.75
2018-11-05T10:25:25.326Z,97384.22
2018-11-05T10:27:58.753Z,97384.65
2018-11-05T10:30:28.154Z,97379.89
2018-11-05T10:32:57.554Z,97388.63
2018-11-05T10:35:32.234Z,97389.89
2018-11-05T10:38:01.632Z,97389.27
2018-11-05T10:40:31.147Z,97399.41
2018-11-05T10:43:00.428Z,97387.57
2018-11-05T10:45:29.843Z,97383.45
2018-11-05T10:47:59.287Z,97372.59
2018-11-05T10:50:28.774Z,97373.86
2018-11-05T10:52:58.085Z,97371.30
2018-11-05T10:55:27.511Z,97372.52
2018-11-05T10:57:56.902Z,97365.44
2018-11-05T11:00:31.297Z,97367.41
2018-11-05T11:03:05.986Z,97368.67
2018-11-05T11:05:35.681Z,97371.09
2018-11-05T11:08:05.468Z,97364.61
2018-11-05T11:10:35.215Z,97360.60
2018-11-05T11:13:05.093Z,97351.02
2018-11-05T11:15:34.875Z,97352.73
2018-11-05T11:18:04.519Z,97347.17
2018-11-05T11:20:34.194Z,97350.48
2018-11-05T11:23:03.910Z,97353.89
2018-11-05T11:25:33.618Z,97358.65
2018-11-05T11:28:03.413Z,97346.84
2018-11-05T11:30:33.005Z,97350.61
2018-11-05T11:33:02.733Z,97349.72
2018-11-05T11:35:32.490Z,97349.94
2018-11-05T11:38:02.217Z,97348.81
2018-11-05T11:40:31.904Z,97360.85
2018-11-05T11:43:01.662Z,97359.95
2018-11-05T11:45:31.471Z,97359.48
2018-11-05T11:48:01.130Z,97352.77
2018-11-05T11:50:30.786Z,97351.15
2018-11-05T11:53:00.570Z,97343.98
2018-11-05T11:55:30.206Z,97336.37
2018-11-05T11:58:00.045Z,97337.55
2018-11-05T12:00:29.707Z,97331.81
2018-11-05T12:02:59.356Z,97313.42
2018-11-05T12:05:29.261Z,97327.69
2018-11-05T12:07:58.772Z,97325.05
2018-11-05T12:10:28.444Z,97316.93
2018-11-05T12:12:58.125Z,97310.41
2018-11-05T12:15:27.850Z,97315.53
2018-11-05T12:17:57.675Z,97313.62
2018-11-05T12:20:27.260Z,97315.47
2018-11-05T12:22:56.718Z,97309.06
2018-11-05T12:25:26.149Z,97286.02
2018-11-05T12:27:55.526Z,97305.11
2018-11-05T12:30:24.918Z,97296.39
2018-11-05T12:32:55.014Z,97292.64
2018-11-05T12:35:24.702Z,97289.64
2018-11-05T12:37:54.434Z,97272.45
2018-11-05T12:40:24.698Z,97269.97
2018-11-05T12:42:54.104Z,97269.61
2018-11-05T12:45:24.634Z,97262.77
2018-11-05T12:47:54.035Z,97253.53
2018-11-05T12:50:24.947Z,97257.30
2018-11-05T12:52:55.361Z,97250.42
2018-11-05T12:55:24.737Z,97266.09
2018-11-05T12:57:54.143Z,97249.87
2018-11-05T13:00:25.394Z,97247.98
2018-11-05T13:02:56.969Z,97241.57
2018-11-05T13:05:27.456Z,97238.67
2018-11-05T13:07:56.850Z,97246.04
2018-11-05T13:10:26.538Z,97245.88
2018-11-05T13:12:55.947Z,97236.26
2018-11-05T13:15:25.445Z,97228.34
2018-11-05T13:17:54.710Z,97235.10
2018-11-05T13:20:25.126Z,97227.32
2018-11-05T13:22:54.536Z,97221.19
2018-11-05T13:25:24.744Z,97223.95
2018-11-05T13:27:54.128Z,97226.58
2018-11-05T13:30:24.746Z,97221.89
2018-11-05T13:32:54.894Z,97219.17
2018-11-05T13:35:24.666Z,97215.60
2018-11-05T13:37:54.561Z,97215.39
2018-11-05T13:40:24.654Z,97215.48
2018-11-05T13:42:54.085Z,97215.30
2018-11-05T13:45:24.758Z,97218.58
2018-11-05T13:47:54.955Z,97213.34
2018-11-05T13:50:25.078Z,97216.91
2018-11-05T13:52:54.681Z,97224.33
2018-11-05T13:55:24.698Z,97220.53
2018-11-05T13:57:54.098Z,97222.58
2018-11-05T14:00:24.747Z,97221.03
2018-11-05T14:02:54.134Z,97210.16
2018-11-05T14:05:24.774Z,97204.43
2018-11-05T14:07:54.173Z,97211.58
2018-11-05T14:10:24.774Z,97207.02
2018-11-05T14:12:54.871Z,97204.00
2018-11-05T14:15:24.726Z,97199.06
2018-11-05T14:17:54.131Z,97204.78
2018-11-05T14:20:25.198Z,97200.62
2018-11-05T14:22:54.604Z,97195.93
2018-11-05T14:25:24.751Z,97195.62
2018-11-05T14:27:54.380Z,97192.67
2018-11-05T14:30:24.752Z,97192.42
2018-11-05T14:32:54.149Z,97189.81
2018-11-05T14:35:24.790Z,97184.02
2018-11-05T14:37:54.159Z,97185.08
2018-11-05T14:40:24.778Z,97192.83
2018-11-05T14:42:54.259Z,97202.38
2018-11-05T14:45:24.798Z,97201.02
2018-11-05T14:47:54.179Z,97195.58
2018-11-05T14:50:24.824Z,97187.58
2018-11-05T14:52:54.209Z,97198.34
2018-11-05T14:55:24.815Z,97197.56
2018-11-05T14:57:54.222Z,97203.03
2018-11-05T15:00:26.950Z,97202.44
2018-11-05T15:02:56.896Z,97199.59
2018-11-05T15:05:26.303Z,97199.92
2018-11-05T15:07:55.689Z,97202.58
2018-11-05T15:10:25.917Z,97198.97
2018-11-05T15:12:55.342Z,97197.77
2018-11-05T15:15:24.958Z,97197.27
2018-11-05T15:17:54.394Z,97204.72
2018-11-05T15:20:25.246Z,97202.33
2018-11-05T15:22:55.206Z,97195.75
2018-11-05T15:25:31.546Z,97199.63
2018-11-05T15:28:00.897Z,97188.17
2018-11-05T15:30:30.271Z,97195.15
2018-11-05T15:32:59.653Z,97194.58
2018-11-05T15:35:29.062Z,97193.17
2018-11-05T15:37:58.446Z,97198.20
2018-11-05T15:40:27.865Z,97201.20
2018-11-05T15:42:57.230Z,97205.59
2018-11-05T15:45:29.650Z,97209.25
2018-11-05T15:47:59.066Z,97215.58
2018-11-05T15:50:28.473Z,97220.95
2018-11-05T15:52:58.292Z,97223.30
2018-11-05T15:55:27.245Z,97227.92
2018-11-05T15:57:56.630Z,97217.28
2018-11-05T16:00:26.250Z,97219.81
2018-11-05T16:02:58.002Z,97225.19
2018-11-05T16:05:27.419Z,97222.95
2018-11-05T16:07:56.825Z,97226.25
2018-11-05T16:10:26.271Z,97226.97
2018-11-05T16:12:55.661Z,97221.83
2018-11-05T16:15:25.193Z,97227.55
2018-11-05T16:17:54.602Z,97234.17
2018-11-05T16:20:25.234Z,97229.61
2018-11-05T16:22:54.623Z,97221.20
2018-11-05T16:25:25.138Z,97223.49
2018-11-05T16:27:54.540Z,97225.88
2018-11-05T16:30:25.240Z,97233.38
2018-11-05T16:32:54.575Z,97241.08
2018-11-05T16:35:25.247Z,97243.31
2018-11-05T16:37:54.610Z,97241.65
2018-11-05T16:40:25.175Z,97240.33
2018-11-05T16:42:54.571Z,97227.68
2018-11-05T16:45:25.169Z,97228.44
2018-11-05T16:47:54.570Z,97232.57
2018-11-05T16:50:28.086Z,97225.13
2018-11-05T16:52:57.486Z,97210.93
2018-11-05T16:55:26.875Z,97210.45
2018-11-05T16:57:56.267Z,97209.89
2018-11-05T17:00:25.738Z,97203.87
2018-11-05T17:02:55.139Z,97210.59
2018-11-05T17:05:25.458Z,97217.78
2018-11-05T17:07:54.843Z,97223.25
2018-11-05T17:10:25.414Z,97221.09
2018-11-05T17:12:54.819Z,97225.91
2018-11-05T17:15:25.333Z,97231.03
2018-11-05T17:17:54.784Z,97227.63
2018-11-05T17:20:25.701Z,97229.83
2018-11-05T17:22:55.184Z,97239.31
2018-11-05T17:25:25.410Z,97233.05
2018-11-05T17:27:54.788Z,97232.25
2018-11-05T17:30:25.410Z,97239.53
2018-11-05T17:32:55.490Z,97234.63
2018-11-05T17:35:25.447Z,97246.30
2018-11-05T17:37:54.788Z,97239.50
2018-11-05T17:40:25.396Z,97242.93
2018-11-05T17:42:54.790Z,97251.92
2018-11-05T17:45:25.407Z,97249.00
2018-11-05T17:47:54.797Z,97246.05
2018-11-05T17:50:25.472Z,97243.55
2018-11-05T17:52:55.342Z,97236.80
2018-11-05T17:55:25.557Z,97235.14
2018-11-05T17:57:54.946Z,97230.57
2018-11-05T18:00:25.567Z,97239.55
2018-11-05T18:02:54.957Z,97243.81
2018-11-05T18:05:25.551Z,97239.58
2018-11-05T18:07:54.942Z,97238.37
2018-11-05T18:10:25.578Z,97239.20
2018-11-05T18:12:55.863Z,97240.52
2018-11-05T18:15:25.702Z,97238.95
2018-11-05T18:17:55.078Z,97235.25
2018-11-05T18:20:25.681Z,97229.70
2018-11-05T18:22:55.679Z,97234.25
2018-11-05T18:25:25.725Z,97240.98
2018-11-05T18:27:55.106Z,97234.56
2018-11-05T18:30:25.726Z,97240.42
2018-11-05T18:32:55.127Z,97232.19
2018-11-05T18:35:25.767Z,97229.16
2018-11-05T18:37:55.180Z,97235.08
2018-11-05T18:40:25.800Z,97231.24
2018-11-05T18:42:55.264Z,97225.30
2018-11-05T18:45:25.886Z,97235.95
2018-11-05T18:47:55.214Z,97236.39
2018-11-05T18:50:25.739Z,97239.38
2018-11-05T18:52:55.131Z,97234.37
2018-11-05T18:55:25.747Z,97229.36
2018-11-05T18:57:55.163Z,97212.81
2018-11-05T19:00:26.896Z,97213.59
2018-11-05T19:02:57.384Z,97210.53
2018-11-05T19:05:28.057Z,97208.31
2018-11-05T19:07:57.727Z,97207.98
2018-11-05T19:10:27.201Z,97210.09
2018-11-05T19:12:56.729Z,97217.29
2018-11-05T19:15:26.159Z,97210.50
2018-11-05T19:17:55.718Z,97205.45
2018-11-05T19:20:26.330Z,97200.75
2018-11-05T19:22:55.950Z,97199.41
2018-11-05T19:25:26.006Z,97204.08
2018-11-05T19:27:55.406Z,97204.08
2018-11-05T19:30:27.448Z,97211.74
2018-11-05T19:32:57.035Z,97221.86
2018-11-05T19:35:26.679Z,97227.74
2018-11-05T19:37:57.555Z,97229.09
2018-11-05T19:40:29.584Z,97226.13
2018-11-05T19:43:01.912Z,97231.64
2018-11-05T19:45:34.358Z,97230.77
2018-11-05T19:48:06.049Z,97229.53
2018-11-05T19:50:38.763Z,97236.83
2018-11-05T19:53:11.487Z,97238.88
2018-11-05T19:55:43.931Z,97231.69
2018-11-05T19:58:16.540Z,97241.06
2018-11-05T20:00:48.494Z,97244.06
2018-11-05T20:03:21.529Z,97245.88
2018-11-05T20:05:54.785Z,97252.23
2018-11-05T20:08:27.366Z,97247.59
2018-11-05T20:11:00.331Z,97247.63
2018-11-05T20:13:33.162Z,97248.99
2018-11-05T20:16:05.486Z,97244.44
2018-11-05T20:18:36.076Z,97247.46
2018-11-05T20:21:08.967Z,97246.65
2018-11-05T20:23:41.078Z,97249.23
2018-11-05T20:26:13.020Z,97247.55
2018-11-05T20:28:45.512Z,97249.70
2018-11-05T20:31:18.871Z,97250.95
2018-11-05T20:33:51.793Z,97253.50
2018-11-05T20:36:24.794Z,97250.08
2018-11-05T20:38:57.794Z,97246.24
2018-11-05T20:41:30.392Z,97237.91
2018-11-05T20:44:01.465Z,97238.05
2018-11-05T20:46:34.546Z,97241.08
2018-11-05T20:49:06.567Z,97248.45
2018-11-05T20:51:38.687Z,97251.52
2018-11-05T20:54:09.472Z,97257.89
2018-11-05T20:56:40.667Z,97257.47
2018-11-05T20:59:13.237Z,97253.77
2018-11-05T21:01:42.732Z,97252.14
2018-11-05T21:04:12.523Z,97251.39
2018-11-05T21:06:41.939Z,97252.70
2018-11-05T21:09:12.261Z,97251.44
2018-11-05T21:11:41.679Z,97254.49
2018-11-05T21:14:11.116Z,97257.97
2018-11-05T21:16:40.577Z,97255.07
2018-11-05T21:19:09.962Z,97254.66
2018-11-05T21:21:39.498Z,97250.00
2018-11-05T21:24:08.763Z,97248.33
2018-11-05T21:26:38.256Z,97246.64
2018-11-05T21:29:07.578Z,97246.27
2018-11-05T21:31:36.990Z,97254.78
2018-11-05T21:34:06.395Z,97251.36
2018-11-05T21:36:35.775Z,97259.44
2018-11-05T21:39:08.566Z,97254.78
2018-11-05T21:41:37.952Z,97253.89
2018-11-05T21:44:08.008Z,97256.02
2018-11-05T21:46:37.538Z,97257.73
2018-11-05T21:49:07.375Z,97258.98
2018-11-05T21:51:36.803Z,97260.70
2018-11-05T21:54:06.615Z,97261.98
2018-11-05T21:56:36.197Z,97267.08
2018-11-05T21:59:05.598Z,97266.20
2018-11-05T22:01:34.975Z,97272.16
2018-11-05T22:04:04.394Z,97264.98
2018-11-05T22:06:33.762Z,97272.60
2018-11-05T22:09:03.619Z,97272.63
2018-11-05T22:11:33.042Z,97270.50
2018-11-05T22:14:02.408Z,97270.89
2018-11-05T22:16:31.798Z,97269.63
2018-11-05T22:19:02.238Z,97269.19
2018-11-05T22:21:31.638Z,97272.17
2018-11-05T22:24:01.203Z,97271.28
2018-11-05T22:26:30.677Z,97276.41
2018-11-05T22:29:00.043Z,97276.79
2018-11-05T22:31:29.466Z,97274.21
2018-11-05T22:33:58.859Z,97273.76
2018-11-05T22:36:28.230Z,97271.28
2018-11-05T22:38:57.650Z,97275.16
2018-11-05T22:41:27.359Z,97267.48
2018-11-05T22:43:56.763Z,97275.50
2018-11-05T22:46:26.154Z,97269.14
2018-11-05T22:48:55.545Z,97267.43
2018-11-05T22:51:24.943Z,97263.56
2018-11-05T22:53:54.397Z,97265.67
2018-11-05T22:56:24.049Z,97263.56
2018-11-05T22:58:53.418Z,97266.58
2018-11-05T23:01:28.243Z,97267.82
2018-11-05T23:03:57.651Z,97265.30
2018-11-05T23:06:27.223Z,97272.58
2018-11-05T23:08:56.626Z,97277.24
2018-11-05T23:11:26.306Z,97279.43
2018-11-05T23:13:55.762Z,97282.45
2018-11-05T23:16:25.168Z,97277.37
2018-11-05T23:18:54.671Z,97278.21
2018-11-05T23:21:24.063Z,97288.42
2018-11-05T23:23:53.490Z,97289.72
2018-11-05T23:26:22.890Z,97289.30
2018-11-05T23:28:52.298Z,97291.84
2018-11-05T23:31:21.675Z,97294.41
2018-11-05T23:33:51.060Z,97284.64
2018-11-05T23:36:20.441Z,97291.02
2018-11-05T23:38:49.829Z,97292.70
2018-11-05T23:41:19.227Z,97291.02
2018-11-05T23:43:48.597Z,97291.01
2018-11-05T23:46:18.015Z,97286.33
2018-11-05T23:48:47.394Z,97291.44
2018-11-05T23:51:16.783Z,97283.77
2018-11-05T23:53:46.158Z,97284.63
2018-11-05T23:56:15.546Z,97281.64
2018-11-05T23:58:44.938Z,97279.53
